Time,TemperatureF,DewpointF,PressureIn,WindDirection,WindDirectionDegrees,WindSpeedMPH,WindSpeedGustMPH,Humidity,HourlyPrecipIn,Conditions,Clouds,dailyrainin,SoftwareType,DateUTC
2013-06-21 00:00:00,64.9,53.7,30.20,SE,135,0.0,0.0,67,0.00,,,-99.99,open2300 version1.11,2013-06-21 04:00:00,
2013-06-21 00:05:00,64.6,53.4,30.20,SE,135,0.0,0.0,67,0.00,,,-99.99,open2300 version1.11,2013-06-21 04:05:00,
2013-06-21 00:10:00,64.6,53.8,30.20,SE,135,0.0,0.0,68,0.00,,,-99.99,open2300 version1.11,2013-06-21 04:10:00,
2013-06-21 00:15:00,64.2,53.9,30.20,SE,135,0.0,0.0,69,0.00,,,-99.99,open2300 version1.11,2013-06-21 04:15:00,
2013-06-21 00:20:00,64.0,53.7,30.20,SE,135,0.0,0.0,69,0.00,,,-99.99,open2300 version1.11,2013-06-21 04:20:00,
2013-06-21 00:25:00,63.7,53.4,30.21,SE,135,0.0,0.0,69,0.00,,,-99.99,open2300 version1.11,2013-06-21 04:25:00,
2013-06-21 00:30:00,63.3,53.4,30.21,SE,135,0.0,0.0,70,0.00,,,-99.99,open2300 version1.11,2013-06-21 04:30:00,
2013-06-21 00:35:00,63.1,53.2,30.20,SE,135,0.0,0.0,70,0.00,,,-99.99,open2300 version1.11,2013-06-21 04:35:00,
2013-06-21 00:40:00,63.1,53.6,30.21,SE,135,0.0,0.0,71,0.00,,,-99.99,open2300 version1.11,2013-06-21 04:40:00,
2013-06-21 00:45:00,62.8,53.4,30.20,SE,135,0.0,0.0,71,0.00,,,-99.99,open2300 version1.11,2013-06-21 04:45:00,
2013-06-21 00:50:00,62.6,53.4,30.21,SE,135,0.0,0.0,72,0.00,,,-99.99,open2300 version1.11,2013-06-21 04:50:00,
2013-06-21 00:55:00,62.4,53.3,30.21,SE,135,0.0,0.0,72,0.00,,,-99.99,open2300 version1.11,2013-06-21 04:55:00,
2013-06-21 01:05:00,62.2,53.8,30.21,SE,135,0.0,0.0,74,0.00,,,-99.99,open2300 version1.11,2013-06-21 05:05:00,
2013-06-21 01:10:00,62.1,53.6,30.20,SE,135,0.0,0.0,74,0.00,,,-99.99,open2300 version1.11,2013-06-21 05:10:00,
2013-06-21 01:20:00,61.7,53.3,30.20,SE,135,0.0,0.0,74,0.00,,,-99.99,open2300 version1.11,2013-06-21 05:20:00,
2013-06-21 01:25:00,61.7,53.7,30.20,SE,135,0.0,0.0,75,0.00,,,-99.99,open2300 version1.11,2013-06-21 05:25:00,
2013-06-21 01:30:00,61.5,53.5,30.20,SE,135,0.0,0.0,75,0.00,,,-99.99,open2300 version1.11,2013-06-21 05:30:00,
2013-06-21 01:35:00,61.5,53.5,30.20,SE,135,0.0,0.0,75,0.00,,,-99.99,open2300 version1.11,2013-06-21 05:35:00,
2013-06-21 01:40:00,61.5,53.5,30.20,SE,135,0.0,0.0,75,0.00,,,-99.99,open2300 version1.11,2013-06-21 05:40:00,
2013-06-21 01:45:00,61.3,53.7,30.20,SE,135,0.0,0.0,76,0.00,,,-99.99,open2300 version1.11,2013-06-21 05:45:00,
2013-06-21 01:50:00,61.3,53.7,30.19,SE,135,0.0,0.0,76,0.00,,,-99.99,open2300 version1.11,2013-06-21 05:50:00,
2013-06-21 01:55:00,61.2,53.6,30.20,SE,135,0.0,0.0,76,0.00,,,-99.99,open2300 version1.11,2013-06-21 05:55:00,
2013-06-21 02:00:00,61.2,53.6,30.19,SE,135,0.0,0.0,76,0.00,,,-99.99,open2300 version1.11,2013-06-21 06:00:00,
2013-06-21 02:05:00,61.0,53.4,30.20,SE,135,0.0,0.0,76,0.00,,,-99.99,open2300 version1.11,2013-06-21 06:05:00,
2013-06-21 02:10:00,61.0,53.4,30.19,SE,135,0.0,0.0,76,0.00,,,-99.99,open2300 version1.11,2013-06-21 06:10:00,
2013-06-21 02:15:00,60.8,53.2,30.19,SE,135,0.0,0.0,76,0.00,,,-99.99,open2300 version1.11,2013-06-21 06:15:00,
2013-06-21 02:25:00,60.6,53.4,30.19,SE,135,0.0,0.0,77,0.00,,,-99.99,open2300 version1.11,2013-06-21 06:25:00,
2013-06-21 02:30:00,60.6,53.4,30.19,SE,135,0.0,0.0,77,0.00,,,-99.99,open2300 version1.11,2013-06-21 06:30:00,
2013-06-21 02:35:00,60.6,53.8,30.19,SE,135,0.0,0.0,78,0.00,,,-99.99,open2300 version1.11,2013-06-21 06:35:00,
2013-06-21 02:40:00,60.6,53.8,30.18,SE,135,0.0,0.0,78,0.00,,,-99.99,open2300 version1.11,2013-06-21 06:40:00,
2013-06-21 02:45:00,60.4,53.6,30.19,SE,135,0.0,0.0,78,0.00,,,-99.99,open2300 version1.11,2013-06-21 06:45:00,
2013-06-21 02:55:00,60.4,54.0,30.18,SE,135,0.0,0.0,79,0.00,,,-99.99,open2300 version1.11,2013-06-21 06:55:00,
2013-06-21 03:00:00,60.4,54.0,30.18,SE,135,0.0,0.0,79,0.00,,,-99.99,open2300 version1.11,2013-06-21 07:00:00,
2013-06-21 03:10:00,60.1,53.6,30.18,SE,135,0.0,0.0,79,0.00,,,-99.99,open2300 version1.11,2013-06-21 07:10:00,
2013-06-21 03:15:00,60.1,54.0,30.18,SE,135,0.0,0.0,80,0.00,,,-99.99,open2300 version1.11,2013-06-21 07:15:00,
2013-06-21 03:20:00,59.9,53.8,30.18,SE,135,0.0,0.0,80,0.00,,,-99.99,open2300 version1.11,2013-06-21 07:20:00,
2013-06-21 03:25:00,59.7,53.6,30.18,SE,135,0.0,0.0,80,0.00,,,-99.99,open2300 version1.11,2013-06-21 07:25:00,
2013-06-21 03:30:00,59.7,53.6,30.18,SE,135,0.0,0.0,80,0.00,,,-99.99,open2300 version1.11,2013-06-21 07:30:00,
2013-06-21 03:35:00,59.5,53.4,30.18,SE,135,0.0,0.0,80,0.00,,,-99.99,open2300 version1.11,2013-06-21 07:35:00,
2013-06-21 03:40:00,59.5,53.4,30.18,SE,135,0.0,0.0,80,0.00,,,-99.99,open2300 version1.11,2013-06-21 07:40:00,
2013-06-21 03:45:00,59.5,53.4,30.18,SE,135,0.0,0.0,80,0.00,,,-99.99,open2300 version1.11,2013-06-21 07:45:00,
2013-06-21 03:50:00,59.4,53.2,30.18,SE,135,0.0,0.0,80,0.00,,,-99.99,open2300 version1.11,2013-06-21 07:50:00,
2013-06-21 03:55:00,59.2,53.1,30.18,SE,135,0.0,0.0,80,0.00,,,-99.99,open2300 version1.11,2013-06-21 07:55:00,
2013-06-21 04:00:00,59.2,53.1,30.18,SE,135,0.0,0.0,80,0.00,,,-99.99,open2300 version1.11,2013-06-21 08:00:00,
2013-06-21 04:10:00,59.0,52.9,30.18,SE,135,0.0,0.0,80,0.00,,,-99.99,open2300 version1.11,2013-06-21 08:10:00,
2013-06-21 04:15:00,58.8,52.7,30.18,SE,135,0.0,0.0,80,0.00,,,-99.99,open2300 version1.11,2013-06-21 08:15:00,
2013-06-21 04:20:00,58.8,53.0,30.18,SE,135,0.0,0.0,81,0.00,,,-99.99,open2300 version1.11,2013-06-21 08:20:00,
2013-06-21 04:25:00,58.8,53.0,30.18,SE,135,0.0,0.0,81,0.00,,,-99.99,open2300 version1.11,2013-06-21 08:25:00,
2013-06-21 04:30:00,58.6,52.8,30.18,SE,135,0.0,0.0,81,0.00,,,-99.99,open2300 version1.11,2013-06-21 08:30:00,
2013-06-21 04:35:00,58.6,52.8,30.18,SE,135,0.0,0.0,81,0.00,,,-99.99,open2300 version1.11,2013-06-21 08:35:00,
2013-06-21 04:40:00,58.6,52.8,30.17,SE,135,0.0,0.0,81,0.00,,,-99.99,open2300 version1.11,2013-06-21 08:40:00,
2013-06-21 04:45:00,58.6,52.8,30.18,SE,135,0.0,0.0,81,0.00,,,-99.99,open2300 version1.11,2013-06-21 08:45:00,
2013-06-21 04:55:00,58.8,53.4,30.17,SE,135,0.0,0.0,82,0.00,,,-99.99,open2300 version1.11,2013-06-21 08:55:00,
2013-06-21 05:00:00,58.8,53.4,30.17,SE,135,0.0,0.0,82,0.00,,,-99.99,open2300 version1.11,2013-06-21 09:00:00,
2013-06-21 05:05:00,58.8,53.4,30.17,SE,135,0.0,0.0,82,0.00,,,-99.99,open2300 version1.11,2013-06-21 09:05:00,
2013-06-21 05:15:00,58.8,53.4,30.17,SE,135,0.0,0.0,82,0.00,,,-99.99,open2300 version1.11,2013-06-21 09:15:00,
2013-06-21 05:20:00,58.8,53.4,30.17,SE,135,0.0,0.0,82,0.00,,,-99.99,open2300 version1.11,2013-06-21 09:20:00,
2013-06-21 05:25:00,58.8,53.4,30.18,SE,135,0.0,0.0,82,0.00,,,-99.99,open2300 version1.11,2013-06-21 09:25:00,
2013-06-21 05:30:00,58.8,53.4,30.18,SE,135,0.0,0.0,82,0.00,,,-99.99,open2300 version1.11,2013-06-21 09:30:00,
2013-06-21 05:35:00,58.6,53.2,30.17,SE,135,0.0,0.0,82,0.00,,,-99.99,open2300 version1.11,2013-06-21 09:35:00,
2013-06-21 05:40:00,58.6,53.2,30.17,SE,135,0.0,0.0,82,0.00,,,-99.99,open2300 version1.11,2013-06-21 09:40:00,
2013-06-21 05:45:00,58.6,53.2,30.17,SE,135,0.0,0.0,82,0.00,,,-99.99,open2300 version1.11,2013-06-21 09:45:00,
2013-06-21 05:50:00,58.6,53.2,30.17,SE,135,0.0,0.0,82,0.00,,,-99.99,open2300 version1.11,2013-06-21 09:50:00,
2013-06-21 05:55:00,58.6,53.2,30.17,SE,135,0.0,0.0,82,0.00,,,-99.99,open2300 version1.11,2013-06-21 09:55:00,
2013-06-21 06:00:00,58.6,53.2,30.18,SE,135,0.0,0.0,82,0.00,,,-99.99,open2300 version1.11,2013-06-21 10:00:00,
2013-06-21 06:05:00,58.6,53.2,30.18,SE,135,0.0,0.0,82,0.00,,,-99.99,open2300 version1.11,2013-06-21 10:05:00,
2013-06-21 06:10:00,58.6,53.2,30.17,SE,135,0.0,0.0,82,0.00,,,-99.99,open2300 version1.11,2013-06-21 10:10:00,
2013-06-21 06:20:00,58.8,53.4,30.18,SE,135,0.0,0.0,82,0.00,,,-99.99,open2300 version1.11,2013-06-21 10:20:00,
2013-06-21 06:30:00,59.2,53.7,30.18,SE,135,0.0,0.0,82,0.00,,,-99.99,open2300 version1.11,2013-06-21 10:30:00,
2013-06-21 06:35:00,59.2,53.7,30.18,SE,135,0.0,0.0,82,0.00,,,-99.99,open2300 version1.11,2013-06-21 10:35:00,
2013-06-21 06:40:00,59.5,54.1,30.18,SE,135,0.0,0.0,82,0.00,,,-99.99,open2300 version1.11,2013-06-21 10:40:00,
2013-06-21 06:45:00,59.7,54.2,30.18,SE,135,0.0,0.0,82,0.00,,,-99.99,open2300 version1.11,2013-06-21 10:45:00,
2013-06-21 06:50:00,59.9,54.4,30.18,SE,135,0.0,0.0,82,0.00,,,-99.99,open2300 version1.11,2013-06-21 10:50:00,
2013-06-21 07:00:00,60.4,55.0,30.18,SE,135,0.0,0.0,82,0.00,,,-99.99,open2300 version1.11,2013-06-21 11:00:00,
2013-06-21 07:05:00,60.6,54.8,30.18,SE,135,0.0,0.0,81,0.00,,,-99.99,open2300 version1.11,2013-06-21 11:05:00,
2013-06-21 07:10:00,61.2,55.3,30.18,SE,135,0.0,0.0,81,0.00,,,-99.99,open2300 version1.11,2013-06-21 11:10:00,
2013-06-21 07:15:00,61.9,56.0,30.18,SE,135,0.0,0.0,81,0.00,,,-99.99,open2300 version1.11,2013-06-21 11:15:00,
2013-06-21 07:25:00,63.0,56.7,30.17,SE,135,0.0,0.0,80,0.00,,,-99.99,open2300 version1.11,2013-06-21 11:25:00,
2013-06-21 07:30:00,63.1,56.5,30.17,SE,135,0.0,0.0,79,0.00,,,-99.99,open2300 version1.11,2013-06-21 11:30:00,
2013-06-21 07:35:00,63.7,56.7,30.17,SE,135,0.0,0.0,78,0.00,,,-99.99,open2300 version1.11,2013-06-21 11:35:00,
2013-06-21 07:40:00,64.2,57.2,30.17,SE,135,0.0,0.0,78,0.00,,,-99.99,open2300 version1.11,2013-06-21 11:40:00,
2013-06-21 07:45:00,64.6,57.5,30.17,SE,135,0.0,0.0,78,0.00,,,-99.99,open2300 version1.11,2013-06-21 11:45:00,
2013-06-21 07:50:00,64.9,57.5,30.18,SE,135,0.0,0.0,77,0.00,,,-99.99,open2300 version1.11,2013-06-21 11:50:00,
2013-06-21 08:00:00,65.3,57.9,30.19,SE,135,0.0,0.0,77,0.00,,,-99.99,open2300 version1.11,2013-06-21 12:00:00,
2013-06-21 08:05:00,65.7,58.2,30.19,SE,135,0.0,0.0,77,0.00,,,-99.99,open2300 version1.11,2013-06-21 12:05:00,
2013-06-21 08:10:00,65.8,58.4,30.19,SE,135,0.0,0.0,77,0.00,,,-99.99,open2300 version1.11,2013-06-21 12:10:00,
2013-06-21 08:15:00,65.8,58.0,30.19,SE,135,0.0,0.0,76,0.00,,,-99.99,open2300 version1.11,2013-06-21 12:15:00,
2013-06-21 08:20:00,65.8,58.0,30.19,SE,135,0.0,0.0,76,0.00,,,-99.99,open2300 version1.11,2013-06-21 12:20:00,
2013-06-21 08:25:00,66.0,58.2,30.19,SE,135,0.0,0.0,76,0.00,,,-99.99,open2300 version1.11,2013-06-21 12:25:00,
2013-06-21 08:30:00,66.0,58.6,30.20,SE,135,0.0,0.0,77,0.00,,,-99.99,open2300 version1.11,2013-06-21 12:30:00,
2013-06-21 08:35:00,66.4,59.0,30.20,SE,135,0.0,0.0,77,0.00,,,-99.99,open2300 version1.11,2013-06-21 12:35:00,
2013-06-21 08:40:00,66.7,59.3,30.20,SE,135,0.0,0.0,77,0.00,,,-99.99,open2300 version1.11,2013-06-21 12:40:00,
2013-06-21 08:50:00,67.3,59.9,30.20,SE,135,0.0,0.0,77,0.00,,,-99.99,open2300 version1.11,2013-06-21 12:50:00,
2013-06-21 09:00:00,68.4,60.9,30.19,SE,135,0.0,0.0,77,0.00,,,-99.99,open2300 version1.11,2013-06-21 13:00:00,
2013-06-21 09:10:00,69.1,61.2,30.19,SE,135,0.0,0.0,76,0.00,,,-99.99,open2300 version1.11,2013-06-21 13:10:00,
2013-06-21 09:15:00,69.4,61.1,30.19,SSE,157,0.0,0.0,75,0.00,,,-99.99,open2300 version1.11,2013-06-21 13:15:00,
2013-06-21 09:20:00,69.8,61.4,30.19,SE,135,0.0,0.0,75,0.00,,,-99.99,open2300 version1.11,2013-06-21 13:20:00,
2013-06-21 09:25:00,70.0,61.6,30.18,SE,135,0.0,0.0,75,0.00,,,-99.99,open2300 version1.11,2013-06-21 13:25:00,
2013-06-21 09:30:00,70.2,61.4,30.18,SE,135,0.0,0.0,74,0.00,,,-99.99,open2300 version1.11,2013-06-21 13:30:00,
2013-06-21 09:35:00,70.3,61.6,30.17,SE,135,0.0,0.0,74,0.00,,,-99.99,open2300 version1.11,2013-06-21 13:35:00,
2013-06-21 09:40:00,70.5,61.4,30.16,SSE,157,0.0,0.0,73,0.00,,,-99.99,open2300 version1.11,2013-06-21 13:40:00,
2013-06-21 09:50:00,70.9,61.8,30.16,SE,135,0.0,0.0,73,0.00,,,-99.99,open2300 version1.11,2013-06-21 13:50:00,
2013-06-21 09:55:00,71.2,61.7,30.16,SE,135,0.0,0.0,72,0.00,,,-99.99,open2300 version1.11,2013-06-21 13:55:00,
2013-06-21 10:05:00,72.0,62.8,30.16,SSE,157,0.0,0.0,73,0.00,,,-99.99,open2300 version1.11,2013-06-21 14:05:00,
2013-06-21 10:15:00,72.7,63.2,30.17,SE,135,0.0,0.0,72,0.00,,,-99.99,open2300 version1.11,2013-06-21 14:15:00,
2013-06-21 10:20:00,73.0,63.2,30.17,SE,135,0.0,0.0,71,0.00,,,-99.99,open2300 version1.11,2013-06-21 14:20:00,
2013-06-21 10:25:00,73.2,63.3,30.18,SE,135,0.0,0.0,71,0.00,,,-99.99,open2300 version1.11,2013-06-21 14:25:00,
2013-06-21 10:30:00,73.8,63.5,30.18,SE,135,0.0,0.0,70,0.00,,,-99.99,open2300 version1.11,2013-06-21 14:30:00,
2013-06-21 10:35:00,73.8,63.5,30.18,SE,135,0.0,0.0,70,0.00,,,-99.99,open2300 version1.11,2013-06-21 14:35:00,
2013-06-21 10:40:00,73.9,63.6,30.18,SE,135,0.0,0.0,70,0.00,,,-99.99,open2300 version1.11,2013-06-21 14:40:00,
2013-06-21 10:45:00,73.9,63.2,30.19,SE,135,0.0,0.0,69,0.00,,,-99.99,open2300 version1.11,2013-06-21 14:45:00,
2013-06-21 10:50:00,73.8,63.0,30.19,SE,135,0.0,0.0,69,0.00,,,-99.99,open2300 version1.11,2013-06-21 14:50:00,
2013-06-21 11:00:00,73.2,63.0,30.19,SE,135,0.0,0.0,70,0.00,,,-99.99,open2300 version1.11,2013-06-21 15:00:00,
2013-06-21 11:05:00,73.2,63.0,30.19,SE,135,0.0,0.0,70,0.00,,,-99.99,open2300 version1.11,2013-06-21 15:05:00,
2013-06-21 11:10:00,73.0,62.8,30.19,SE,135,0.0,0.0,70,0.00,,,-99.99,open2300 version1.11,2013-06-21 15:10:00,
2013-06-21 11:20:00,72.9,62.6,30.19,SE,135,0.0,0.0,70,0.00,,,-99.99,open2300 version1.11,2013-06-21 15:20:00,
2013-06-21 11:25:00,72.7,62.4,30.19,SE,135,0.0,0.0,70,0.00,,,-99.99,open2300 version1.11,2013-06-21 15:25:00,
2013-06-21 11:30:00,72.9,63.0,30.19,SE,135,0.0,0.0,71,0.00,,,-99.99,open2300 version1.11,2013-06-21 15:30:00,
2013-06-21 11:35:00,73.0,63.2,30.19,SE,135,0.0,0.0,71,0.00,,,-99.99,open2300 version1.11,2013-06-21 15:35:00,
2013-06-21 11:41:00,73.0,63.2,30.19,SE,135,0.0,0.0,71,0.00,,,-99.99,open2300 version1.11,2013-06-21 15:41:00,
2013-06-21 11:50:00,73.6,63.3,30.19,SE,135,0.0,0.0,70,0.00,,,-99.99,open2300 version1.11,2013-06-21 15:50:00,
2013-06-21 11:55:00,73.9,63.6,30.20,SE,135,0.0,0.0,70,0.00,,,-99.99,open2300 version1.11,2013-06-21 15:55:00,
2013-06-21 12:05:00,74.1,63.8,30.19,SE,135,0.0,0.0,70,0.00,,,-99.99,open2300 version1.11,2013-06-21 16:05:00,
2013-06-21 12:10:00,74.5,64.1,30.20,SE,135,0.0,0.0,70,0.00,,,-99.99,open2300 version1.11,2013-06-21 16:10:00,
2013-06-21 12:20:00,75.4,64.5,30.19,SE,135,0.0,0.0,69,0.00,,,-99.99,open2300 version1.11,2013-06-21 16:20:00,
2013-06-21 12:25:00,75.7,64.4,30.19,SE,135,0.0,0.0,68,0.00,,,-99.99,open2300 version1.11,2013-06-21 16:25:00,
2013-06-21 12:30:00,76.1,64.8,30.18,SE,135,0.0,0.0,68,0.00,,,-99.99,open2300 version1.11,2013-06-21 16:30:00,
2013-06-21 12:35:00,76.6,65.3,30.18,SE,135,0.0,0.0,68,0.00,,,-99.99,open2300 version1.11,2013-06-21 16:35:00,
2013-06-21 12:40:00,77.0,65.7,30.18,ESE,112,0.0,0.0,68,0.00,,,-99.99,open2300 version1.11,2013-06-21 16:40:00,
2013-06-21 12:50:00,77.5,66.2,30.18,SSE,157,0.0,0.0,68,0.00,,,-99.99,open2300 version1.11,2013-06-21 16:50:00,
2013-06-21 12:55:00,77.7,65.9,30.17,SSE,157,0.0,0.0,67,0.00,,,-99.99,open2300 version1.11,2013-06-21 16:55:00,
2013-06-21 13:05:00,78.4,66.1,30.17,ESE,112,0.0,0.0,66,0.00,,,-99.99,open2300 version1.11,2013-06-21 17:05:00,
2013-06-21 13:10:00,78.8,66.5,30.16,SE,135,0.0,0.0,66,0.00,,,-99.99,open2300 version1.11,2013-06-21 17:10:00,
2013-06-21 13:15:00,79.3,67.0,30.16,SSE,157,0.0,0.0,66,0.00,,,-99.99,open2300 version1.11,2013-06-21 17:15:00,
2013-06-21 13:25:00,80.4,67.5,30.16,SSE,157,0.0,0.0,65,0.00,,,-99.99,open2300 version1.11,2013-06-21 17:25:00,
2013-06-21 13:35:00,81.1,67.8,30.15,SSE,157,0.0,0.0,64,0.00,,,-99.99,open2300 version1.11,2013-06-21 17:35:00,
2013-06-21 13:40:00,81.5,68.1,30.16,SSE,157,0.0,0.0,64,0.00,,,-99.99,open2300 version1.11,2013-06-21 17:40:00,
2013-06-21 13:45:00,81.7,67.8,30.15,SSE,157,0.0,0.0,63,0.00,,,-99.99,open2300 version1.11,2013-06-21 17:45:00,
2013-06-21 13:50:00,82.0,68.1,30.15,SSE,157,0.0,0.0,63,0.00,,,-99.99,open2300 version1.11,2013-06-21 17:50:00,
2013-06-21 13:55:00,82.2,67.8,30.16,SSE,157,0.0,0.0,62,0.00,,,-99.99,open2300 version1.11,2013-06-21 17:55:00,
2013-06-21 14:00:00,82.8,67.9,30.15,SSE,157,0.0,0.0,61,0.00,,,-99.99,open2300 version1.11,2013-06-21 18:00:00,
2013-06-21 14:10:00,82.9,67.1,30.15,East,90,0.0,0.0,59,0.00,,,-99.99,open2300 version1.11,2013-06-21 18:10:00,
2013-06-21 14:15:00,82.9,66.6,30.16,ESE,112,0.0,0.0,58,0.00,,,-99.99,open2300 version1.11,2013-06-21 18:15:00,
2013-06-21 14:25:00,82.9,66.1,30.15,SE,135,0.0,0.0,57,0.00,,,-99.99,open2300 version1.11,2013-06-21 18:25:00,
2013-06-21 14:30:00,83.1,65.7,30.15,ENE,67,0.0,0.0,56,0.00,,,-99.99,open2300 version1.11,2013-06-21 18:30:00,
2013-06-21 14:35:00,83.1,65.7,30.15,East,90,0.0,0.0,56,0.00,,,-99.99,open2300 version1.11,2013-06-21 18:35:00,
2013-06-21 14:40:00,83.5,65.6,30.15,SE,135,0.0,0.0,55,0.00,,,-99.99,open2300 version1.11,2013-06-21 18:40:00,
2013-06-21 14:45:00,83.5,65.6,30.15,SSW,202,0.0,0.0,55,0.00,,,-99.99,open2300 version1.11,2013-06-21 18:45:00,
2013-06-21 14:50:00,83.5,65.6,30.15,ESE,112,0.0,0.0,55,0.00,,,-99.99,open2300 version1.11,2013-06-21 18:50:00,
2013-06-21 15:00:00,83.7,65.8,30.16,ESE,112,0.0,0.0,55,0.00,,,-99.99,open2300 version1.11,2013-06-21 19:00:00,
2013-06-21 15:05:00,83.8,65.9,30.16,SE,135,0.0,0.0,55,0.00,,,-99.99,open2300 version1.11,2013-06-21 19:05:00,
2013-06-21 15:15:00,83.8,65.4,30.15,SE,135,0.0,0.0,54,0.00,,,-99.99,open2300 version1.11,2013-06-21 19:15:00,
2013-06-21 15:25:00,84.0,65.6,30.15,East,90,0.0,0.0,54,0.00,,,-99.99,open2300 version1.11,2013-06-21 19:25:00,
2013-06-21 15:30:00,84.0,65.1,30.15,ESE,112,0.0,0.0,53,0.00,,,-99.99,open2300 version1.11,2013-06-21 19:30:00,
2013-06-21 15:35:00,83.8,64.9,30.15,East,90,0.0,0.0,53,0.00,,,-99.99,open2300 version1.11,2013-06-21 19:35:00,
2013-06-21 15:40:00,83.8,64.9,30.15,East,90,0.0,0.0,53,0.00,,,-99.99,open2300 version1.11,2013-06-21 19:40:00,
2013-06-21 15:45:00,83.8,64.9,30.15,WSW,247,0.0,0.0,53,0.00,,,-99.99,open2300 version1.11,2013-06-21 19:45:00,
2013-06-21 15:55:00,84.0,65.1,30.14,South,180,0.0,0.0,53,0.00,,,-99.99,open2300 version1.11,2013-06-21 19:55:00,
2013-06-21 16:00:00,84.0,65.1,30.14,South,180,0.0,0.0,53,0.00,,,-99.99,open2300 version1.11,2013-06-21 20:00:00,
2013-06-21 16:05:00,84.0,65.1,30.14,WSW,247,0.0,0.0,53,0.00,,,-99.99,open2300 version1.11,2013-06-21 20:05:00,
2013-06-21 16:10:00,83.8,64.4,30.14,SW,225,0.0,0.0,52,0.00,,,-99.99,open2300 version1.11,2013-06-21 20:10:00,
2013-06-21 16:16:00,83.8,64.9,30.14,SE,135,0.0,0.0,53,0.00,,,-99.99,open2300 version1.11,2013-06-21 20:16:00,
2013-06-21 16:25:00,83.5,64.0,30.13,ESE,112,0.0,0.0,52,0.00,,,-99.99,open2300 version1.11,2013-06-21 20:25:00,
2013-06-21 16:30:00,83.3,63.8,30.13,ESE,112,0.0,0.0,52,0.00,,,-99.99,open2300 version1.11,2013-06-21 20:30:00,
2013-06-21 16:35:00,83.3,64.3,30.13,ESE,112,0.0,0.0,53,0.00,,,-99.99,open2300 version1.11,2013-06-21 20:35:00,
2013-06-21 16:40:00,83.1,64.2,30.13,ESE,112,0.0,0.0,53,0.00,,,-99.99,open2300 version1.11,2013-06-21 20:40:00,
2013-06-21 16:45:00,83.1,64.2,30.12,ESE,112,0.0,0.0,53,0.00,,,-99.99,open2300 version1.11,2013-06-21 20:45:00,
2013-06-21 16:50:00,82.9,64.0,30.12,ESE,112,0.0,0.0,53,0.00,,,-99.99,open2300 version1.11,2013-06-21 20:50:00,
2013-06-21 16:55:00,82.9,64.0,30.11,ESE,112,0.0,0.0,53,0.00,,,-99.99,open2300 version1.11,2013-06-21 20:55:00,
2013-06-21 17:00:00,82.9,64.0,30.11,SSE,157,0.0,0.0,53,0.00,,,-99.99,open2300 version1.11,2013-06-21 21:00:00,
2013-06-21 17:05:00,82.8,64.3,30.11,SSE,157,0.0,0.0,54,0.00,,,-99.99,open2300 version1.11,2013-06-21 21:05:00,
2013-06-21 17:10:00,82.8,64.3,30.11,ESE,112,0.0,0.0,54,0.00,,,-99.99,open2300 version1.11,2013-06-21 21:10:00,
2013-06-21 17:15:00,82.6,64.2,30.10,ESE,112,0.0,0.0,54,0.00,,,-99.99,open2300 version1.11,2013-06-21 21:15:00,
2013-06-21 17:20:00,82.6,64.2,30.11,SE,135,0.0,0.0,54,0.00,,,-99.99,open2300 version1.11,2013-06-21 21:20:00,
2013-06-21 17:25:00,82.6,64.2,30.10,SE,135,0.0,0.0,54,0.00,,,-99.99,open2300 version1.11,2013-06-21 21:25:00,
2013-06-21 17:30:00,82.6,64.7,30.10,SE,135,0.0,0.0,55,0.00,,,-99.99,open2300 version1.11,2013-06-21 21:30:00,
2013-06-21 17:35:00,82.2,64.3,30.10,SE,135,0.0,0.0,55,0.00,,,-99.99,open2300 version1.11,2013-06-21 21:35:00,
2013-06-21 17:40:00,82.2,64.3,30.10,SE,135,0.0,0.0,55,0.00,,,-99.99,open2300 version1.11,2013-06-21 21:40:00,
2013-06-21 17:45:00,82.2,64.3,30.10,SE,135,0.0,0.0,55,0.00,,,-99.99,open2300 version1.11,2013-06-21 21:45:00,
2013-06-21 17:50:00,82.2,63.8,30.09,East,90,0.0,0.0,54,0.00,,,-99.99,open2300 version1.11,2013-06-21 21:50:00,
2013-06-21 18:00:00,81.9,63.5,30.08,SSE,157,0.0,0.0,54,0.00,,,-99.99,open2300 version1.11,2013-06-21 22:00:00,
2013-06-21 18:05:00,81.5,63.2,30.08,SSE,157,0.0,0.0,54,0.00,,,-99.99,open2300 version1.11,2013-06-21 22:05:00,
2013-06-21 18:10:00,81.3,63.0,30.08,SSE,157,0.0,0.0,54,0.00,,,-99.99,open2300 version1.11,2013-06-21 22:10:00,
2013-06-21 18:16:00,81.3,63.0,30.08,SSE,157,0.0,0.0,54,0.00,,,-99.99,open2300 version1.11,2013-06-21 22:16:00,
2013-06-21 18:25:00,81.1,62.8,30.08,SSE,157,0.0,0.0,54,0.00,,,-99.99,open2300 version1.11,2013-06-21 22:25:00,
2013-06-21 18:30:00,81.0,62.1,30.08,SE,135,0.0,0.0,53,0.00,,,-99.99,open2300 version1.11,2013-06-21 22:30:00,
2013-06-21 18:35:00,81.0,62.7,30.08,SE,135,0.0,0.0,54,0.00,,,-99.99,open2300 version1.11,2013-06-21 22:35:00,
2013-06-21 18:40:00,80.8,62.5,30.08,SE,135,0.0,0.0,54,0.00,,,-99.99,open2300 version1.11,2013-06-21 22:40:00,
2013-06-21 18:45:00,80.8,62.0,30.07,ESE,112,0.0,0.0,53,0.00,,,-99.99,open2300 version1.11,2013-06-21 22:45:00,
2013-06-21 18:50:00,80.8,62.0,30.07,East,90,0.0,0.0,53,0.00,,,-99.99,open2300 version1.11,2013-06-21 22:50:00,
2013-06-21 18:55:00,80.6,61.8,30.07,ESE,112,0.0,0.0,53,0.00,,,-99.99,open2300 version1.11,2013-06-21 22:55:00,
2013-06-21 19:05:00,80.6,61.3,30.07,ESE,112,0.0,0.0,52,0.00,,,-99.99,open2300 version1.11,2013-06-21 23:05:00,
2013-06-21 19:10:00,80.4,61.1,30.07,SE,135,0.0,0.0,52,0.00,,,-99.99,open2300 version1.11,2013-06-21 23:10:00,
2013-06-21 19:15:00,80.4,61.1,30.07,SE,135,0.0,0.0,52,0.00,,,-99.99,open2300 version1.11,2013-06-21 23:15:00,
2013-06-21 19:25:00,80.4,61.1,30.06,South,180,0.0,0.0,52,0.00,,,-99.99,open2300 version1.11,2013-06-21 23:25:00,
2013-06-21 19:30:00,80.2,61.0,30.06,SSE,157,0.0,0.0,52,0.00,,,-99.99,open2300 version1.11,2013-06-21 23:30:00,
2013-06-21 19:35:00,80.1,60.8,30.06,SSE,157,0.0,0.0,52,0.00,,,-99.99,open2300 version1.11,2013-06-21 23:35:00,
2013-06-21 19:40:00,79.9,60.7,30.07,SSE,157,0.0,0.0,52,0.00,,,-99.99,open2300 version1.11,2013-06-21 23:40:00,
2013-06-21 19:50:00,79.7,60.5,30.07,SSE,157,0.0,0.0,52,0.00,,,-99.99,open2300 version1.11,2013-06-21 23:50:00,
2013-06-21 19:55:00,79.5,60.3,30.07,SSE,157,0.0,0.0,52,0.00,,,-99.99,open2300 version1.11,2013-06-21 23:55:00,
2013-06-21 20:00:00,79.5,59.8,30.07,SE,135,0.0,0.0,51,0.00,,,-99.99,open2300 version1.11,2013-06-22 00:00:00,
2013-06-21 20:10:00,79.2,60.0,30.07,East,90,0.0,0.0,52,0.00,,,-99.99,open2300 version1.11,2013-06-22 00:10:00,
2013-06-21 20:15:00,79.0,59.9,30.07,East,90,0.0,0.0,52,0.00,,,-99.99,open2300 version1.11,2013-06-22 00:15:00,
2013-06-21 20:20:00,78.8,60.2,30.06,East,90,0.0,0.0,53,0.00,,,-99.99,open2300 version1.11,2013-06-22 00:20:00,
2013-06-21 20:30:00,78.6,60.0,30.06,SE,135,0.0,0.0,53,0.00,,,-99.99,open2300 version1.11,2013-06-22 00:30:00,
2013-06-21 20:40:00,78.4,59.9,30.06,ESE,112,0.0,0.0,53,0.00,,,-99.99,open2300 version1.11,2013-06-22 00:40:00,
2013-06-21 20:45:00,78.1,59.5,30.06,ESE,112,0.0,0.0,53,0.00,,,-99.99,open2300 version1.11,2013-06-22 00:45:00,
2013-06-21 20:50:00,77.9,59.9,30.05,ESE,112,0.0,0.0,54,0.00,,,-99.99,open2300 version1.11,2013-06-22 00:50:00,
2013-06-21 20:55:00,77.7,59.7,30.06,ESE,112,0.0,0.0,54,0.00,,,-99.99,open2300 version1.11,2013-06-22 00:55:00,
2013-06-21 21:00:00,77.7,59.7,30.05,SSE,157,0.0,0.0,54,0.00,,,-99.99,open2300 version1.11,2013-06-22 01:00:00,
2013-06-21 21:05:00,77.5,59.5,30.06,SSE,157,0.0,0.0,54,0.00,,,-99.99,open2300 version1.11,2013-06-22 01:05:00,
2013-06-21 21:15:00,77.0,59.5,30.06,SSE,157,0.0,0.0,55,0.00,,,-99.99,open2300 version1.11,2013-06-22 01:15:00,
2013-06-21 21:20:00,76.8,59.9,30.06,SSE,157,0.0,0.0,56,0.00,,,-99.99,open2300 version1.11,2013-06-22 01:20:00,
2013-06-21 21:30:00,76.3,59.9,30.07,SSE,157,0.0,0.0,57,0.00,,,-99.99,open2300 version1.11,2013-06-22 01:30:00,
2013-06-21 21:40:00,75.7,59.4,30.08,SSE,157,0.0,0.0,57,0.00,,,-99.99,open2300 version1.11,2013-06-22 01:40:00,
2013-06-21 21:45:00,75.4,59.6,30.08,SSE,157,0.0,0.0,58,0.00,,,-99.99,open2300 version1.11,2013-06-22 01:45:00,
2013-06-21 21:50:00,74.8,59.6,30.08,SSE,157,0.0,0.0,59,0.00,,,-99.99,open2300 version1.11,2013-06-22 01:50:00,
2013-06-21 21:55:00,74.5,59.7,30.08,SSE,157,0.0,0.0,60,0.00,,,-99.99,open2300 version1.11,2013-06-22 01:55:00,
2013-06-21 22:00:00,74.1,59.8,30.08,SSE,157,0.0,0.0,61,0.00,,,-99.99,open2300 version1.11,2013-06-22 02:00:00,
2013-06-21 22:05:00,73.9,59.6,30.08,SSE,157,0.0,0.0,61,0.00,,,-99.99,open2300 version1.11,2013-06-22 02:05:00,
2013-06-21 22:10:00,73.6,59.7,30.08,SSE,157,0.0,0.0,62,0.00,,,-99.99,open2300 version1.11,2013-06-22 02:10:00,
2013-06-21 22:15:00,73.2,59.8,30.08,SSE,157,0.0,0.0,63,0.00,,,-99.99,open2300 version1.11,2013-06-22 02:15:00,
2013-06-21 22:20:00,73.0,59.6,30.08,SSE,157,0.0,0.0,63,0.00,,,-99.99,open2300 version1.11,2013-06-22 02:20:00,
2013-06-21 22:25:00,72.7,59.8,30.08,SSE,157,0.0,0.0,64,0.00,,,-99.99,open2300 version1.11,2013-06-22 02:25:00,
2013-06-21 22:30:00,72.3,59.9,30.08,SSE,157,0.0,0.0,65,0.00,,,-99.99,open2300 version1.11,2013-06-22 02:30:00,
2013-06-21 22:35:00,72.1,59.7,30.09,SSE,157,0.0,0.0,65,0.00,,,-99.99,open2300 version1.11,2013-06-22 02:35:00,
2013-06-21 22:40:00,71.8,59.8,30.09,SSE,157,0.0,0.0,66,0.00,,,-99.99,open2300 version1.11,2013-06-22 02:40:00,
2013-06-21 22:45:00,71.4,59.9,30.09,SSE,157,0.0,0.0,67,0.00,,,-99.99,open2300 version1.11,2013-06-22 02:45:00,
2013-06-21 22:55:00,70.9,59.3,30.09,SSE,157,0.0,0.0,67,0.00,,,-99.99,open2300 version1.11,2013-06-22 02:55:00,
2013-06-21 23:00:00,70.9,59.8,30.09,SSE,157,0.0,0.0,68,0.00,,,-99.99,open2300 version1.11,2013-06-22 03:00:00,
2013-06-21 23:05:00,70.5,59.4,30.09,SSE,157,0.0,0.0,68,0.00,,,-99.99,open2300 version1.11,2013-06-22 03:05:00,
2013-06-21 23:10:00,70.3,59.6,30.09,SSE,157,0.0,0.0,69,0.00,,,-99.99,open2300 version1.11,2013-06-22 03:10:00,
2013-06-21 23:15:00,70.2,59.5,30.09,SSE,157,0.0,0.0,69,0.00,,,-99.99,open2300 version1.11,2013-06-22 03:15:00,
2013-06-21 23:20:00,70.0,59.7,30.09,SSE,157,0.0,0.0,70,0.00,,,-99.99,open2300 version1.11,2013-06-22 03:20:00,
2013-06-21 23:25:00,70.0,59.7,30.09,SSE,157,0.0,0.0,70,0.00,,,-99.99,open2300 version1.11,2013-06-22 03:25:00,
2013-06-21 23:30:00,69.6,59.4,30.09,SSE,157,0.0,0.0,70,0.00,,,-99.99,open2300 version1.11,2013-06-22 03:30:00,
2013-06-21 23:35:00,69.6,59.4,30.09,SSE,157,0.0,0.0,70,0.00,,,-99.99,open2300 version1.11,2013-06-22 03:35:00,
2013-06-21 23:45:00,69.4,59.6,30.10,SSE,157,0.0,0.0,71,0.00,,,-99.99,open2300 version1.11,2013-06-22 03:45:00,
2013-06-21 23:50:00,69.1,59.6,30.09,SSE,157,0.0,0.0,72,0.00,,,-99.99,open2300 version1.11,2013-06-22 03:50:00,
2013-06-21 23:55:00,69.1,59.6,30.09,SSE,157,0.0,0.0,72,0.00,,,-99.99,open2300 version1.11,2013-06-22 03:55:00,